Terminal Aerodrome Forecast
Issued by NWS

Home | Current Version | Previous Version | Text Only | Print | Product List | Glossary On
Versions: 1 2 3 4 5 6 7 8 9 10 11 12 13 14 15 16 17 18
000
FTUS43 KMQT 051120
TAFSAW
TAF
KSAW 051120Z 0512/0612 23007KT P6SM VCSH BKN015
     FM051300 24007KT P6SM BKN030
     FM051700 24006KT P6SM SCT050
     FM060000 19007KT P6SM BKN030
     FM060300 18007KT P6SM VCSH OVC025
     FM060400 18008KT P6SM OVC025
     FM060900 18012KT P6SM OVC010
     FM061100 18010KT P6SM OVC008=

USA.gov is the U.S. government's official web portal to all federal, state and local government web resources and services.